createdAt,value
2023-03-17T00:01:12.133Z,-4.90
2023-03-17T00:03:41.885Z,-4.88
2023-03-17T00:06:17.034Z,-4.86
2023-03-17T00:08:46.363Z,-4.86
2023-03-17T00:11:16.136Z,-4.86
2023-03-17T00:13:44.710Z,-4.87
2023-03-17T00:16:19.255Z,-4.87
2023-03-17T00:18:47.192Z,-4.92
2023-03-17T00:21:16.533Z,-4.98
2023-03-17T00:23:47.997Z,-5.01
2023-03-17T00:26:15.378Z,-5.06
2023-03-17T00:28:43.150Z,-5.14
2023-03-17T00:31:16.854Z,-5.19
2023-03-17T00:33:46.691Z,-5.23
2023-03-17T00:36:30.771Z,-5.23
2023-03-17T00:38:58.427Z,-5.19
2023-03-17T00:41:25.710Z,-5.18
2023-03-17T00:43:52.727Z,-5.18
2023-03-17T00:46:25.671Z,-5.17
2023-03-17T00:48:52.869Z,-5.16
2023-03-17T00:51:19.706Z,-5.16
2023-03-17T00:53:47.965Z,-5.18
2023-03-17T00:56:17.614Z,-5.22
2023-03-17T00:58:45.669Z,-5.27
2023-03-17T01:01:12.555Z,-5.35
2023-03-17T01:03:40.320Z,-5.41
2023-03-17T01:06:11.517Z,-5.46
2023-03-17T01:08:40.666Z,-5.50
2023-03-17T01:11:15.168Z,-5.51
2023-03-17T01:13:41.938Z,-5.51
2023-03-17T01:16:11.343Z,-5.50
2023-03-17T01:18:38.762Z,-5.50
2023-03-17T01:21:06.711Z,-5.53
2023-03-17T01:23:34.008Z,-5.56
2023-03-17T01:26:00.849Z,-5.57
2023-03-17T01:28:28.313Z,-5.58
2023-03-17T01:30:55.581Z,-5.62
2023-03-17T01:33:22.343Z,-5.66
2023-03-17T01:35:50.573Z,-5.70
2023-03-17T01:38:17.786Z,-5.73
2023-03-17T01:40:49.588Z,-5.70
2023-03-17T01:43:22.578Z,-5.67
2023-03-17T01:46:21.189Z,-5.64
2023-03-17T01:48:53.108Z,-5.64
2023-03-17T01:51:32.459Z,-5.66
2023-03-17T01:54:03.630Z,-5.66
2023-03-17T01:56:31.541Z,-5.68
2023-03-17T01:59:04.075Z,-5.69
2023-03-17T02:01:37.895Z,-5.71
2023-03-17T02:04:06.631Z,-5.72
2023-03-17T02:06:34.905Z,-5.75
2023-03-17T02:09:02.754Z,-5.78
2023-03-17T02:11:30.954Z,-5.78
2023-03-17T02:13:57.782Z,-5.75
2023-03-17T02:16:25.188Z,-5.73
2023-03-17T02:18:52.793Z,-5.70
2023-03-17T02:21:36.396Z,-5.65
2023-03-17T02:24:07.965Z,-5.56
2023-03-17T02:26:36.762Z,-5.46
2023-03-17T02:29:04.223Z,-5.37
2023-03-17T02:31:31.144Z,-5.26
2023-03-17T02:33:57.914Z,-5.15
2023-03-17T02:36:25.180Z,-5.08
2023-03-17T02:38:52.977Z,-5.02
2023-03-17T02:41:20.664Z,-5.00
2023-03-17T02:43:47.867Z,-4.99
2023-03-17T02:46:15.042Z,-5.00
2023-03-17T02:48:42.907Z,-5.02
2023-03-17T02:51:09.728Z,-5.05
2023-03-17T02:53:36.767Z,-5.11
2023-03-17T02:56:04.882Z,-5.21
2023-03-17T02:58:31.681Z,-5.31
2023-03-17T03:00:58.592Z,-5.36
2023-03-17T03:03:25.857Z,-5.40
2023-03-17T03:05:53.232Z,-5.44
2023-03-17T03:08:20.785Z,-5.47
2023-03-17T03:10:47.743Z,-5.50
2023-03-17T03:13:14.557Z,-5.50
2023-03-17T03:15:43.085Z,-5.46
2023-03-17T03:18:10.036Z,-5.43
2023-03-17T03:20:36.797Z,-5.40
2023-03-17T03:23:04.098Z,-5.38
2023-03-17T03:25:30.854Z,-5.37
2023-03-17T03:27:57.589Z,-5.38
2023-03-17T03:30:24.342Z,-5.40
2023-03-17T03:32:51.796Z,-5.45
2023-03-17T03:35:18.776Z,-5.51
2023-03-17T03:37:45.504Z,-5.57
2023-03-17T03:40:12.856Z,-5.63
2023-03-17T03:42:39.596Z,-5.68
2023-03-17T03:45:07.122Z,-5.72
2023-03-17T03:47:34.284Z,-5.72
2023-03-17T03:50:01.114Z,-5.72
2023-03-17T03:52:28.067Z,-5.72
2023-03-17T03:54:54.848Z,-5.70
2023-03-17T03:57:21.587Z,-5.69
2023-03-17T03:59:48.356Z,-5.69
2023-03-17T04:02:17.330Z,-5.71
2023-03-17T04:04:44.342Z,-5.75
2023-03-17T04:07:12.165Z,-5.80
2023-03-17T04:09:39.439Z,-5.87
2023-03-17T04:12:07.058Z,-5.94
2023-03-17T04:14:34.105Z,-6.04
2023-03-17T04:17:01.768Z,-6.10
2023-03-17T04:19:28.918Z,-6.13
2023-03-17T04:21:56.215Z,-6.16
2023-03-17T04:24:23.087Z,-6.16
2023-03-17T04:27:06.318Z,-6.12
2023-03-17T04:29:33.265Z,-6.06
2023-03-17T04:32:00.102Z,-6.00
2023-03-17T04:34:27.473Z,-5.94
2023-03-17T04:36:54.292Z,-5.86
2023-03-17T04:39:21.087Z,-5.75
2023-03-17T04:41:47.857Z,-5.63
2023-03-17T04:44:14.772Z,-5.53
2023-03-17T04:46:42.037Z,-5.45
2023-03-17T04:49:09.802Z,-5.43
2023-03-17T04:51:36.997Z,-5.39
2023-03-17T04:54:04.133Z,-5.36
2023-03-17T04:56:32.097Z,-5.36
2023-03-17T04:58:59.182Z,-5.38
2023-03-17T05:01:26.547Z,-5.49
2023-03-17T05:03:53.796Z,-5.52
2023-03-17T05:06:20.536Z,-5.55
2023-03-17T05:08:47.586Z,-5.62
2023-03-17T05:11:15.414Z,-5.71
2023-03-17T05:13:42.788Z,-5.79
2023-03-17T05:16:10.503Z,-5.78
2023-03-17T05:18:37.954Z,-5.74
2023-03-17T05:21:06.373Z,-5.69
2023-03-17T05:23:34.065Z,-5.62
2023-03-17T05:26:00.926Z,-5.56
2023-03-17T05:28:27.826Z,-5.47
2023-03-17T05:30:55.229Z,-5.29
2023-03-17T05:33:22.103Z,-5.12
2023-03-17T05:35:48.967Z,-5.00
2023-03-17T05:38:17.187Z,-4.88
2023-03-17T05:40:44.553Z,-4.71
2023-03-17T05:43:11.713Z,-4.51
2023-03-17T05:45:39.309Z,-4.28
2023-03-17T05:48:06.356Z,-4.05
2023-03-17T05:50:33.752Z,-3.81
2023-03-17T05:53:01.092Z,-3.58
2023-03-17T05:55:27.860Z,-3.36
2023-03-17T05:57:54.808Z,-3.13
2023-03-17T06:00:21.914Z,-2.91
2023-03-17T06:02:49.400Z,-2.69
2023-03-17T06:05:16.358Z,-2.45
2023-03-17T06:07:52.871Z,-2.23
2023-03-17T06:10:22.012Z,-1.98
2023-03-17T06:12:48.911Z,-1.71
2023-03-17T06:15:17.131Z,-1.42
2023-03-17T06:17:44.687Z,-1.12
2023-03-17T06:20:12.326Z,-0.81
2023-03-17T06:22:46.319Z,-0.48
2023-03-17T06:25:19.141Z,-0.05
2023-03-17T06:27:46.014Z,0.38
2023-03-17T06:30:13.348Z,0.87
2023-03-17T06:32:40.358Z,1.37
2023-03-17T06:35:07.658Z,1.86
2023-03-17T06:37:35.963Z,2.27
2023-03-17T06:40:06.391Z,2.68
2023-03-17T06:42:33.387Z,3.18
2023-03-17T06:45:00.284Z,3.70
2023-03-17T06:47:27.405Z,4.23
2023-03-17T06:49:54.340Z,4.73
2023-03-17T06:52:21.441Z,5.26
2023-03-17T06:54:48.558Z,5.79
2023-03-17T06:57:15.304Z,6.30
2023-03-17T06:59:42.055Z,6.83
2023-03-17T07:02:11.678Z,7.28
2023-03-17T07:04:38.720Z,7.70
2023-03-17T07:07:06.438Z,8.01
2023-03-17T07:09:34.514Z,8.35
2023-03-17T07:12:05.050Z,8.69
2023-03-17T07:14:34.251Z,9.08
2023-03-17T07:17:03.498Z,9.53
2023-03-17T07:19:31.326Z,9.98
2023-03-17T07:21:58.629Z,10.37
2023-03-17T07:24:26.117Z,10.70
2023-03-17T07:26:53.160Z,10.93
2023-03-17T07:29:21.153Z,11.15
2023-03-17T07:31:48.384Z,11.42
2023-03-17T07:34:16.475Z,11.75
2023-03-17T07:36:43.286Z,12.00
2023-03-17T07:39:12.125Z,12.24
2023-03-17T07:41:39.130Z,12.65
2023-03-17T07:44:06.720Z,13.13
2023-03-17T07:46:33.546Z,13.59
2023-03-17T07:49:00.595Z,13.92
2023-03-17T07:51:28.330Z,14.28
2023-03-17T07:54:03.432Z,14.62
2023-03-17T07:56:31.300Z,14.92
2023-03-17T07:58:59.303Z,15.25
2023-03-17T08:01:28.527Z,15.59
2023-03-17T08:03:56.614Z,16.06
2023-03-17T08:06:26.701Z,16.44
2023-03-17T08:08:55.032Z,16.81
2023-03-17T08:11:23.534Z,17.18
2023-03-17T08:13:51.043Z,17.39
2023-03-17T08:16:17.871Z,17.62
2023-03-17T08:18:44.932Z,17.86
2023-03-17T08:21:13.490Z,17.99
2023-03-17T08:23:41.933Z,18.19
2023-03-17T08:26:08.810Z,18.39
2023-03-17T08:28:35.981Z,18.59
2023-03-17T08:31:10.395Z,18.81
2023-03-17T08:33:40.577Z,18.57
2023-03-17T08:36:09.669Z,18.45
2023-03-17T08:38:38.154Z,18.68
2023-03-17T08:41:08.042Z,18.77
2023-03-17T08:43:37.416Z,18.53
2023-03-17T08:46:08.106Z,18.61
2023-03-17T08:48:36.501Z,18.63
2023-03-17T08:51:05.275Z,18.46
2023-03-17T08:53:35.173Z,18.12
2023-03-17T08:56:04.711Z,17.98
2023-03-17T08:58:31.582Z,18.00
2023-03-17T09:01:00.597Z,17.89
2023-03-17T09:03:29.144Z,17.62
2023-03-17T09:05:55.982Z,17.67
2023-03-17T09:08:22.775Z,17.75
2023-03-17T09:10:50.389Z,17.75
2023-03-17T09:13:17.700Z,17.82
2023-03-17T09:15:46.044Z,17.90
2023-03-17T09:18:12.955Z,17.86
2023-03-17T09:20:39.761Z,17.85
2023-03-17T09:23:09.084Z,17.94
2023-03-17T09:25:37.589Z,18.01
2023-03-17T09:28:05.608Z,18.02
2023-03-17T09:30:33.277Z,17.78
2023-03-17T09:33:00.803Z,17.48
2023-03-17T09:35:28.649Z,17.07
2023-03-17T09:37:55.726Z,16.68
2023-03-17T09:40:32.856Z,16.42
2023-03-17T09:43:01.586Z,16.12
2023-03-17T09:45:41.124Z,16.09
2023-03-17T09:48:14.190Z,15.93
2023-03-17T09:51:00.701Z,15.66
2023-03-17T09:53:34.870Z,15.56
2023-03-17T09:56:08.811Z,15.50
2023-03-17T09:58:37.766Z,15.07
2023-03-17T10:01:06.032Z,14.85
2023-03-17T10:03:34.328Z,14.62
2023-03-17T10:06:18.156Z,14.54
2023-03-17T10:08:51.845Z,14.27
2023-03-17T10:11:28.059Z,13.93
2023-03-17T10:14:10.034Z,13.77
2023-03-17T10:16:57.965Z,13.75
2023-03-17T10:19:40.977Z,13.67
2023-03-17T10:22:21.897Z,13.61
2023-03-17T10:24:53.154Z,13.63
2023-03-17T10:27:21.681Z,13.69
2023-03-17T10:29:48.805Z,13.72
2023-03-17T10:32:16.101Z,13.76
2023-03-17T10:34:43.484Z,13.70
2023-03-17T10:37:17.708Z,13.67
2023-03-17T10:39:47.145Z,13.61
2023-03-17T10:42:25.086Z,13.48
2023-03-17T10:45:12.476Z,13.39
2023-03-17T10:47:44.918Z,13.48
2023-03-17T10:50:24.835Z,13.75
2023-03-17T10:52:59.363Z,13.90
2023-03-17T10:55:31.617Z,13.87
2023-03-17T10:58:13.988Z,13.73
2023-03-17T11:00:50.638Z,13.69
2023-03-17T11:03:35.482Z,13.72
2023-03-17T11:06:05.709Z,13.60
2023-03-17T11:08:39.246Z,13.62
2023-03-17T11:11:10.110Z,13.74
2023-03-17T11:13:37.493Z,13.90
2023-03-17T11:16:11.774Z,13.89
2023-03-17T11:18:39.974Z,13.88
2023-03-17T11:21:26.941Z,13.91
2023-03-17T11:24:14.220Z,13.94
2023-03-17T11:26:46.289Z,13.75
2023-03-17T11:29:29.651Z,13.80
2023-03-17T11:32:05.402Z,14.09
2023-03-17T11:34:57.745Z,14.29
2023-03-17T11:37:36.423Z,14.33
2023-03-17T11:40:13.106Z,14.27
2023-03-17T11:42:57.131Z,14.29
2023-03-17T11:45:35.746Z,14.07
2023-03-17T11:48:21.512Z,14.03
2023-03-17T11:51:12.046Z,14.12
2023-03-17T11:53:39.329Z,14.27
2023-03-17T11:56:14.213Z,14.34
2023-03-17T11:58:44.213Z,14.45
2023-03-17T12:01:18.189Z,14.54
2023-03-17T12:03:49.049Z,14.62
2023-03-17T12:06:25.976Z,14.78
2023-03-17T12:09:01.640Z,15.02
2023-03-17T12:11:31.754Z,15.23
2023-03-17T12:13:59.569Z,15.39
2023-03-17T12:16:27.695Z,15.52
2023-03-17T12:19:16.705Z,15.65
2023-03-17T12:22:06.689Z,15.82
2023-03-17T12:24:41.186Z,16.03
2023-03-17T12:27:09.181Z,16.07
2023-03-17T12:29:47.486Z,16.12
2023-03-17T12:32:26.477Z,16.43
2023-03-17T12:34:59.928Z,16.90
2023-03-17T12:37:30.182Z,17.23
2023-03-17T12:40:05.495Z,17.66
2023-03-17T12:42:47.433Z,17.91
2023-03-17T12:45:45.679Z,18.06
2023-03-17T12:48:48.564Z,18.38
2023-03-17T12:51:32.249Z,18.73
2023-03-17T12:54:00.309Z,19.04
2023-03-17T12:56:31.887Z,19.31
2023-03-17T12:59:04.555Z,19.59
2023-03-17T13:01:34.792Z,19.77
2023-03-17T13:04:06.114Z,19.82
2023-03-17T13:06:41.403Z,19.53
2023-03-17T13:09:39.619Z,19.55
2023-03-17T13:12:07.156Z,19.51
2023-03-17T13:14:45.887Z,19.42
2023-03-17T13:17:28.802Z,19.27
2023-03-17T13:19:55.534Z,19.17
2023-03-17T13:22:22.425Z,19.09
2023-03-17T13:24:51.912Z,19.07
2023-03-17T13:27:34.676Z,18.99
2023-03-17T13:30:26.895Z,18.84
2023-03-17T13:33:10.304Z,18.71
2023-03-17T13:35:41.810Z,18.54
2023-03-17T13:38:13.161Z,18.46
2023-03-17T13:40:49.856Z,18.54
2023-03-17T13:43:16.660Z,18.68
2023-03-17T13:45:45.893Z,18.50
2023-03-17T13:48:33.716Z,18.06
2023-03-17T13:51:15.460Z,18.00
2023-03-17T13:53:47.202Z,18.02
2023-03-17T13:56:36.879Z,18.16
2023-03-17T13:59:05.244Z,18.30
2023-03-17T14:01:39.166Z,18.32
2023-03-17T14:04:13.019Z,18.41
2023-03-17T14:06:40.415Z,18.40
2023-03-17T14:09:16.721Z,18.14
2023-03-17T14:11:47.212Z,17.81
2023-03-17T14:14:37.090Z,17.44
2023-03-17T14:17:25.807Z,17.09
2023-03-17T14:20:02.036Z,17.04
2023-03-17T14:22:28.833Z,17.14
2023-03-17T14:24:59.565Z,17.26
2023-03-17T14:27:27.487Z,17.32
2023-03-17T14:29:54.530Z,17.47
2023-03-17T14:32:26.492Z,17.63
2023-03-17T14:34:57.409Z,17.64
2023-03-17T14:37:25.477Z,17.69
2023-03-17T14:39:55.257Z,17.78
2023-03-17T14:42:28.366Z,17.83
2023-03-17T14:45:26.049Z,17.77
2023-03-17T14:47:53.065Z,17.41
2023-03-17T14:50:27.497Z,17.39
2023-03-17T14:52:57.644Z,17.48
2023-03-17T14:55:35.845Z,17.49
2023-03-17T14:58:09.275Z,17.51
2023-03-17T15:00:43.451Z,17.61
2023-03-17T15:03:21.033Z,17.72
2023-03-17T15:05:48.923Z,17.73
2023-03-17T15:08:35.792Z,17.64
2023-03-17T15:11:04.990Z,17.49
2023-03-17T15:13:36.482Z,17.16
2023-03-17T15:16:16.444Z,16.69
2023-03-17T15:18:43.932Z,16.22
2023-03-17T15:21:29.858Z,15.76
2023-03-17T15:23:56.817Z,15.32
2023-03-17T15:26:31.466Z,14.95
2023-03-17T15:29:00.552Z,14.61
2023-03-17T15:31:30.257Z,14.34
2023-03-17T15:33:58.019Z,14.08
2023-03-17T15:36:32.608Z,13.82
2023-03-17T15:39:01.355Z,13.59
2023-03-17T15:41:28.362Z,13.40
2023-03-17T15:43:55.494Z,13.18
2023-03-17T15:46:27.459Z,12.97
2023-03-17T15:48:54.396Z,12.77
2023-03-17T15:51:22.088Z,12.57
2023-03-17T15:53:49.284Z,12.40
2023-03-17T15:56:19.600Z,12.26
2023-03-17T15:58:49.285Z,12.11
2023-03-17T16:01:16.794Z,11.98
2023-03-17T16:03:45.504Z,11.84
2023-03-17T16:06:18.487Z,11.72
2023-03-17T16:08:45.848Z,11.59
2023-03-17T16:11:19.322Z,11.46
2023-03-17T16:13:47.717Z,11.31
2023-03-17T16:16:21.631Z,11.17
2023-03-17T16:18:51.126Z,11.02
2023-03-17T16:21:19.318Z,10.87
2023-03-17T16:23:47.213Z,10.73
2023-03-17T16:26:16.757Z,10.60
2023-03-17T16:28:45.644Z,10.45
2023-03-17T16:31:22.525Z,10.32
2023-03-17T16:33:51.255Z,10.18
2023-03-17T16:36:19.612Z,10.04
2023-03-17T16:38:47.407Z,9.92
2023-03-17T16:41:19.582Z,9.78
2023-03-17T16:43:51.319Z,9.62
2023-03-17T16:46:20.743Z,9.45
2023-03-17T16:48:49.597Z,9.29
2023-03-17T16:51:17.054Z,9.12
2023-03-17T16:53:44.567Z,8.97
2023-03-17T16:56:21.499Z,8.83
2023-03-17T16:58:49.339Z,8.69
2023-03-17T17:01:19.935Z,8.54
2023-03-17T17:03:47.688Z,8.35
2023-03-17T17:06:15.640Z,8.20
2023-03-17T17:08:47.341Z,8.04
2023-03-17T17:11:15.590Z,7.92
2023-03-17T17:13:44.991Z,7.79
2023-03-17T17:16:22.959Z,7.67
2023-03-17T17:18:49.833Z,7.52
2023-03-17T17:21:16.778Z,7.32
2023-03-17T17:23:43.802Z,7.04
2023-03-17T17:26:11.243Z,6.72
2023-03-17T17:28:40.132Z,6.48
2023-03-17T17:31:08.925Z,6.22
2023-03-17T17:33:37.194Z,5.93
2023-03-17T17:36:06.180Z,5.69
2023-03-17T17:38:33.276Z,5.42
2023-03-17T17:41:07.027Z,5.15
2023-03-17T17:43:36.080Z,4.87
2023-03-17T17:46:04.407Z,4.63
2023-03-17T17:48:33.082Z,4.42
2023-03-17T17:51:00.676Z,4.21
2023-03-17T17:53:27.518Z,4.00
2023-03-17T17:55:54.272Z,3.79
2023-03-17T17:58:24.027Z,3.64
2023-03-17T18:00:52.694Z,3.41
2023-03-17T18:03:24.620Z,3.19
2023-03-17T18:05:53.379Z,3.02
2023-03-17T18:08:20.628Z,2.87
2023-03-17T18:10:48.877Z,2.71
2023-03-17T18:13:17.236Z,2.56
2023-03-17T18:15:44.980Z,2.45
2023-03-17T18:18:12.270Z,2.35
2023-03-17T18:20:39.137Z,2.29
2023-03-17T18:23:06.193Z,2.23
2023-03-17T18:25:32.999Z,2.13
2023-03-17T18:28:01.470Z,2.06
2023-03-17T18:30:31.680Z,2.02
2023-03-17T18:33:05.435Z,2.11
2023-03-17T18:35:32.362Z,2.19
2023-03-17T18:38:00.101Z,2.26
2023-03-17T18:40:26.964Z,2.33
2023-03-17T18:42:54.258Z,2.43
2023-03-17T18:45:21.037Z,2.53
2023-03-17T18:47:48.123Z,2.63
2023-03-17T18:50:16.442Z,2.74
2023-03-17T18:52:44.981Z,2.91
2023-03-17T18:55:28.699Z,3.05
2023-03-17T18:57:55.732Z,3.16
2023-03-17T19:00:25.356Z,3.25
2023-03-17T19:03:08.261Z,3.33
2023-03-17T19:05:38.093Z,3.40
2023-03-17T19:08:05.550Z,3.48
2023-03-17T19:10:33.279Z,3.54
2023-03-17T19:13:00.504Z,3.54
2023-03-17T19:15:27.329Z,3.58
2023-03-17T19:17:54.167Z,3.65
2023-03-17T19:20:38.176Z,3.73
2023-03-17T19:23:04.956Z,3.79
2023-03-17T19:25:31.692Z,3.80
2023-03-17T19:27:59.197Z,3.86
2023-03-17T19:30:26.041Z,3.89
2023-03-17T19:32:52.915Z,3.93
2023-03-17T19:35:19.692Z,4.00
2023-03-17T19:37:47.085Z,4.03
2023-03-17T19:40:14.342Z,4.03
2023-03-17T19:42:41.262Z,3.95
2023-03-17T19:45:08.721Z,3.81
2023-03-17T19:47:36.191Z,3.68
2023-03-17T19:50:03.206Z,3.56
2023-03-17T19:52:46.304Z,3.44
2023-03-17T19:55:13.302Z,3.23
2023-03-17T19:57:40.045Z,3.07
2023-03-17T20:00:09.844Z,2.98
2023-03-17T20:02:37.830Z,2.89
2023-03-17T20:05:05.561Z,2.77
2023-03-17T20:07:47.903Z,2.65
2023-03-17T20:10:30.810Z,2.55
2023-03-17T20:12:57.708Z,2.39
2023-03-17T20:15:24.479Z,2.27
2023-03-17T20:17:51.276Z,2.16
2023-03-17T20:20:18.195Z,2.07
2023-03-17T20:22:45.286Z,2.00
2023-03-17T20:25:27.660Z,1.90
2023-03-17T20:27:55.228Z,1.81
2023-03-17T20:30:22.709Z,1.72
2023-03-17T20:32:49.667Z,1.61
2023-03-17T20:35:16.471Z,1.52
2023-03-17T20:37:43.518Z,1.41
2023-03-17T20:40:26.463Z,1.30
2023-03-17T20:42:53.716Z,1.21
2023-03-17T20:45:38.021Z,1.16
2023-03-17T20:48:06.229Z,1.07
2023-03-17T20:50:34.513Z,1.00
2023-03-17T20:53:01.775Z,0.93
2023-03-17T20:55:30.213Z,0.86
2023-03-17T20:57:58.887Z,0.79
2023-03-17T21:00:26.335Z,0.70
2023-03-17T21:02:53.307Z,0.66
2023-03-17T21:05:24.487Z,0.59
2023-03-17T21:07:51.991Z,0.54
2023-03-17T21:10:19.843Z,0.51
2023-03-17T21:12:46.867Z,0.48
2023-03-17T21:15:14.171Z,0.45
2023-03-17T21:17:42.332Z,0.41
2023-03-17T21:20:12.622Z,0.37
2023-03-17T21:22:40.427Z,0.34
2023-03-17T21:25:09.129Z,0.30
2023-03-17T21:27:37.817Z,0.27
2023-03-17T21:30:06.806Z,0.25
2023-03-17T21:32:33.655Z,0.22
2023-03-17T21:35:00.538Z,0.18
2023-03-17T21:37:27.667Z,0.14
2023-03-17T21:39:54.424Z,0.10
2023-03-17T21:42:21.318Z,0.05
2023-03-17T21:44:48.520Z,0.03
2023-03-17T21:47:15.823Z,-0.01
2023-03-17T21:49:42.707Z,-0.05
2023-03-17T21:52:09.582Z,-0.09
2023-03-17T21:54:37.206Z,-0.13
2023-03-17T21:57:04.847Z,-0.17
2023-03-17T21:59:34.335Z,-0.21
2023-03-17T22:02:02.402Z,-0.27
2023-03-17T22:04:29.294Z,-0.33
2023-03-17T22:06:56.443Z,-0.38
2023-03-17T22:09:23.187Z,-0.41
2023-03-17T22:11:50.129Z,-0.42
2023-03-17T22:14:20.129Z,-0.39
2023-03-17T22:16:48.866Z,-0.35
2023-03-17T22:19:17.085Z,-0.32
2023-03-17T22:21:44.693Z,-0.30
2023-03-17T22:24:12.703Z,-0.29
2023-03-17T22:26:39.620Z,-0.30
2023-03-17T22:29:06.435Z,-0.34
2023-03-17T22:31:35.459Z,-0.40
2023-03-17T22:34:03.146Z,-0.45
2023-03-17T22:36:30.658Z,-0.50
2023-03-17T22:38:58.397Z,-0.59
2023-03-17T22:41:27.853Z,-0.69
2023-03-17T22:43:55.024Z,-0.75
2023-03-17T22:46:22.219Z,-0.81
2023-03-17T22:48:49.435Z,-0.88
2023-03-17T22:51:20.086Z,-0.95
2023-03-17T22:53:47.579Z,-1.01
2023-03-17T22:56:16.513Z,-1.06
2023-03-17T22:58:44.469Z,-1.11
2023-03-17T23:01:12.388Z,-1.17
2023-03-17T23:03:40.320Z,-1.23
2023-03-17T23:06:08.632Z,-1.28
2023-03-17T23:08:38.490Z,-1.32
2023-03-17T23:11:08.671Z,-1.34
2023-03-17T23:13:36.427Z,-1.34
2023-03-17T23:16:04.851Z,-1.29
2023-03-17T23:18:32.315Z,-1.25
2023-03-17T23:21:00.771Z,-1.21
2023-03-17T23:23:28.197Z,-1.19
2023-03-17T23:25:55.035Z,-1.19
2023-03-17T23:28:22.102Z,-1.22
2023-03-17T23:30:48.897Z,-1.27
2023-03-17T23:33:17.503Z,-1.29
2023-03-17T23:35:46.056Z,-1.36
2023-03-17T23:38:13.563Z,-1.37
2023-03-17T23:40:41.317Z,-1.40
2023-03-17T23:43:08.098Z,-1.43
2023-03-17T23:45:35.505Z,-1.46
2023-03-17T23:48:02.971Z,-1.49
2023-03-17T23:50:30.252Z,-1.53
2023-03-17T23:52:57.671Z,-1.57
2023-03-17T23:55:25.076Z,-1.60
2023-03-17T23:57:52.238Z,-1.64
